Time,TemperatureF,DewpointF,PressureIn,WindDirection,WindDirectionDegrees,WindSpeedMPH,WindSpeedGustMPH,Humidity,HourlyPrecipIn,Conditions,Clouds,dailyrainin,SoftwareType,DateUTC
2013-03-05 00:00:00,72.0,62.0,30.00,East,97,0.0,0.0,71,0.00,CLR,,0.00,WeatherDisplay:10.37,2013-03-04 13:00:00,
2013-03-05 00:05:00,71.9,62.0,30.00,ESE,115,0.0,3.0,71,0.00,CLR,,0.00,WeatherDisplay:10.37,2013-03-04 13:05:00,
2013-03-05 00:10:00,71.8,61.9,30.00,SSE,164,0.0,0.0,71,0.00,CLR,,0.00,WeatherDisplay:10.37,2013-03-04 13:10:00,
2013-03-05 00:15:00,71.8,61.9,30.00,ESE,122,0.0,2.0,71,0.00,CLR,,0.00,WeatherDisplay:10.37,2013-03-04 13:15:00,
2013-03-05 00:20:00,71.8,61.9,30.00,East,94,0.0,3.0,71,0.00,CLR,,0.00,WeatherDisplay:10.37,2013-03-04 13:20:00,
2013-03-05 00:25:00,71.8,61.9,30.00,East,91,0.0,0.0,71,0.00,CLR,,0.00,WeatherDisplay:10.37,2013-03-04 13:25:00,
2013-03-05 00:30:00,71.8,61.9,30.00,SE,133,0.0,0.0,71,0.00,CLR,,0.00,WeatherDisplay:10.37,2013-03-04 13:30:00,
2013-03-05 00:35:00,71.8,61.9,30.00,ENE,68,0.0,0.0,71,0.00,CLR,,0.00,WeatherDisplay:10.37,2013-03-04 13:35:00,
2013-03-05 00:40:00,71.8,62.3,30.00,NE,52,0.0,0.0,72,0.00,CLR,,0.00,WeatherDisplay:10.37,2013-03-04 13:40:00,
2013-03-05 00:45:00,71.8,62.3,30.00,NE,46,0.0,0.0,72,0.00,CLR,,0.00,WeatherDisplay:10.37,2013-03-04 13:45:00,
2013-03-05 00:50:00,71.6,62.1,30.00,NE,50,0.0,0.0,72,0.00,CLR,,0.00,WeatherDisplay:10.37,2013-03-04 13:50:00,
2013-03-05 00:55:00,71.7,62.2,30.00,East,101,0.0,0.0,72,0.00,CLR,,0.00,WeatherDisplay:10.37,2013-03-04 13:55:00,
2013-03-05 01:00:00,71.6,62.1,30.00,East,94,0.0,2.0,72,0.00,CLR,,0.00,WeatherDisplay:10.37,2013-03-04 14:00:00,
2013-03-05 01:05:00,71.6,62.1,29.99,ENE,62,0.0,2.0,72,0.00,CLR,,0.00,WeatherDisplay:10.37,2013-03-04 14:05:00,
2013-03-05 01:10:00,71.6,62.1,29.99,East,90,0.0,0.0,72,0.00,CLR,,0.00,WeatherDisplay:10.37,2013-03-04 14:10:00,
2013-03-05 01:15:00,71.4,61.9,29.99,ESE,104,0.0,2.0,72,0.00,CLR,,0.00,WeatherDisplay:10.37,2013-03-04 14:15:00,
2013-03-05 01:20:00,71.4,61.5,29.99,SE,124,0.0,0.0,71,0.00,CLR,,0.00,WeatherDisplay:10.37,2013-03-04 14:20:00,
2013-03-05 01:25:00,71.4,61.5,29.99,SE,135,0.0,0.0,71,0.00,CLR,,0.00,WeatherDisplay:10.37,2013-03-04 14:25:00,
2013-03-05 01:30:00,71.4,61.5,29.99,East,87,0.0,0.0,71,0.00,CLR,,0.00,WeatherDisplay:10.37,2013-03-04 14:30:00,
2013-03-05 01:35:00,71.4,61.5,29.99,ESE,104,0.0,2.0,71,0.00,CLR,,0.00,WeatherDisplay:10.37,2013-03-04 14:35:00,
2013-03-05 01:40:00,71.4,61.5,29.99,SSE,158,0.0,2.0,71,0.00,CLR,,0.00,WeatherDisplay:10.37,2013-03-04 14:40:00,
2013-03-05 01:50:00,71.4,61.5,29.98,East,98,0.0,0.0,71,0.00,CLR,,0.00,WeatherDisplay:10.37,2013-03-04 14:50:00,
2013-03-05 01:55:00,71.4,61.5,29.98,ESE,110,0.0,0.0,71,0.00,CLR,,0.00,WeatherDisplay:10.37,2013-03-04 14:55:00,
2013-03-05 02:00:00,71.4,61.5,29.98,ESE,105,0.0,0.0,71,0.00,CLR,,0.00,WeatherDisplay:10.37,2013-03-04 15:00:00,
2013-03-05 02:05:00,71.2,61.4,29.98,East,91,0.0,0.0,71,0.00,CLR,,0.00,WeatherDisplay:10.37,2013-03-04 15:05:00,
2013-03-05 02:10:00,71.2,61.7,29.98,SSE,154,0.0,0.0,72,0.00,CLR,,0.00,WeatherDisplay:10.37,2013-03-04 15:10:00,
2013-03-05 02:15:00,71.2,61.7,29.98,East,101,0.0,0.0,72,0.00,CLR,,0.00,WeatherDisplay:10.37,2013-03-04 15:15:00,
2013-03-05 02:20:00,71.2,61.7,29.98,East,93,0.0,0.0,72,0.00,CLR,,0.00,WeatherDisplay:10.37,2013-03-04 15:20:00,
2013-03-05 02:25:00,71.1,61.6,29.98,ESE,114,0.0,0.0,72,0.00,CLR,,0.00,WeatherDisplay:10.37,2013-03-04 15:25:00,
2013-03-05 02:30:00,70.9,61.5,29.97,East,101,0.0,0.0,72,0.00,CLR,,0.00,WeatherDisplay:10.37,2013-03-04 15:30:00,
2013-03-05 02:35:00,70.9,61.5,29.98,ESE,106,0.0,0.0,72,0.00,CLR,,0.00,WeatherDisplay:10.37,2013-03-04 15:35:00,
2013-03-05 02:40:00,70.9,61.8,29.97,ENE,63,0.0,0.0,73,0.00,CLR,,0.00,WeatherDisplay:10.37,2013-03-04 15:40:00,
2013-03-05 02:45:00,70.9,61.8,29.97,ENE,64,0.0,0.0,73,0.00,CLR,,0.00,WeatherDisplay:10.37,2013-03-04 15:45:00,
2013-03-05 02:50:00,70.9,61.8,29.97,ESE,120,0.0,0.0,73,0.00,CLR,,0.00,WeatherDisplay:10.37,2013-03-04 15:50:00,
2013-03-05 02:55:00,70.9,61.8,29.97,SSE,159,0.0,0.0,73,0.00,CLR,,0.00,WeatherDisplay:10.37,2013-03-04 15:55:00,
2013-03-05 03:00:00,70.8,61.7,29.97,SSE,150,0.0,0.0,73,0.00,CLR,,0.00,WeatherDisplay:10.37,2013-03-04 16:00:00,
2013-03-05 03:05:00,70.7,61.6,29.97,ESE,119,0.0,0.0,73,0.00,CLR,,0.00,WeatherDisplay:10.37,2013-03-04 16:05:00,
2013-03-05 03:10:00,70.5,61.4,29.97,ESE,111,0.0,0.0,73,0.00,CLR,,0.00,WeatherDisplay:10.37,2013-03-04 16:10:00,
2013-03-05 03:15:00,70.5,61.8,29.97,ESE,122,0.0,0.0,74,0.00,CLR,,0.00,WeatherDisplay:10.37,2013-03-04 16:15:00,
2013-03-05 03:20:00,70.3,61.7,29.97,East,84,0.0,0.0,74,0.00,CLR,,0.00,WeatherDisplay:10.37,2013-03-04 16:20:00,
2013-03-05 03:25:00,70.3,61.7,29.97,NE,55,0.0,0.0,74,0.00,CLR,,0.00,WeatherDisplay:10.37,2013-03-04 16:25:00,
2013-03-05 03:30:00,70.3,61.7,29.96,ENE,73,0.0,0.0,74,0.00,CLR,,0.00,WeatherDisplay:10.37,2013-03-04 16:30:00,
2013-03-05 03:35:00,70.2,61.5,29.96,SSE,160,0.0,0.0,74,0.00,CLR,,0.00,WeatherDisplay:10.37,2013-03-04 16:35:00,
2013-03-05 03:40:00,70.1,61.4,29.96,South,174,0.0,0.0,74,0.00,CLR,,0.00,WeatherDisplay:10.37,2013-03-04 16:40:00,
2013-03-05 03:45:00,70.0,61.3,29.96,SSE,152,0.0,0.0,74,0.00,CLR,,0.00,WeatherDisplay:10.37,2013-03-04 16:45:00,
2013-03-05 03:50:00,70.0,61.3,29.96,SE,139,0.0,0.0,74,0.00,CLR,,0.00,WeatherDisplay:10.37,2013-03-04 16:50:00,
2013-03-05 03:55:00,69.8,61.1,29.96,ESE,120,0.0,0.0,74,0.00,CLR,,0.00,WeatherDisplay:10.37,2013-03-04 16:55:00,
2013-03-05 04:00:00,69.8,61.5,29.96,ESE,117,0.0,0.0,75,0.00,CLR,,0.00,WeatherDisplay:10.37,2013-03-04 17:00:00,
2013-03-05 04:05:00,69.7,61.4,29.96,SE,135,0.0,0.0,75,0.00,CLR,,0.00,WeatherDisplay:10.37,2013-03-04 17:05:00,
2013-03-05 04:10:00,69.6,61.3,29.95,SE,139,0.0,0.0,75,0.00,CLR,,0.00,WeatherDisplay:10.37,2013-03-04 17:10:00,
2013-03-05 04:15:00,69.6,61.3,29.95,ESE,114,0.0,0.0,75,0.00,CLR,,0.00,WeatherDisplay:10.37,2013-03-04 17:15:00,
2013-03-05 04:21:00,69.6,61.3,29.96,ENE,76,0.0,0.0,75,0.00,CLR,,0.00,WeatherDisplay:10.37,2013-03-04 17:21:00,
2013-03-05 04:26:00,69.6,61.7,29.95,East,94,0.0,0.0,76,0.00,CLR,,0.00,WeatherDisplay:10.37,2013-03-04 17:26:00,
2013-03-05 04:30:00,69.6,61.7,29.95,SSE,147,0.0,0.0,76,0.00,CLR,,0.00,WeatherDisplay:10.37,2013-03-04 17:30:00,
2013-03-05 04:35:00,69.6,61.7,29.96,SE,125,0.0,0.0,76,0.00,CLR,,0.00,WeatherDisplay:10.37,2013-03-04 17:35:00,
2013-03-05 04:40:00,69.4,61.5,29.96,ESE,114,0.0,2.0,76,0.00,CLR,,0.00,WeatherDisplay:10.37,2013-03-04 17:40:00,
2013-03-05 04:46:00,69.4,61.5,29.96,ESE,119,0.0,0.0,76,0.00,CLR,,0.00,WeatherDisplay:10.37,2013-03-04 17:46:00,
2013-03-05 04:51:00,69.4,61.9,29.96,ESE,123,0.0,1.0,77,0.00,CLR,,0.00,WeatherDisplay:10.37,2013-03-04 17:51:00,
2013-03-05 04:55:00,69.4,61.9,29.96,SE,140,0.0,0.0,77,0.00,CLR,,0.00,WeatherDisplay:10.37,2013-03-04 17:55:00,
2013-03-05 05:00:00,69.4,61.9,29.96,ESE,113,0.0,0.0,77,0.00,CLR,,0.00,WeatherDisplay:10.37,2013-03-04 18:00:00,
2013-03-05 05:05:00,69.4,61.9,29.96,SE,130,0.0,0.0,77,0.00,CLR,,0.00,WeatherDisplay:10.37,2013-03-04 18:05:00,
2013-03-05 05:10:00,69.4,61.9,29.96,South,171,0.0,0.0,77,0.00,CLR,,0.00,WeatherDisplay:10.37,2013-03-04 18:10:00,
2013-03-05 05:15:00,69.3,61.7,29.96,SSE,156,0.0,0.0,77,0.00,CLR,,0.00,WeatherDisplay:10.37,2013-03-04 18:15:00,
2013-03-05 05:20:00,69.1,61.6,29.96,ESE,121,0.0,0.0,77,0.00,CLR,,0.00,WeatherDisplay:10.37,2013-03-04 18:20:00,
2013-03-05 05:25:00,69.1,61.6,29.96,SE,140,0.0,0.0,77,0.00,CLR,,0.00,WeatherDisplay:10.37,2013-03-04 18:25:00,
2013-03-05 05:30:00,69.1,61.6,29.96,NNW,347,0.0,0.0,77,0.00,CLR,,0.00,WeatherDisplay:10.37,2013-03-04 18:30:00,
2013-03-05 05:35:00,69.1,61.6,29.96,NNE,26,0.0,2.0,77,0.00,CLR,,0.00,WeatherDisplay:10.37,2013-03-04 18:35:00,
2013-03-05 05:40:00,69.1,61.6,29.96,East,94,0.0,2.0,77,0.00,CLR,,0.00,WeatherDisplay:10.37,2013-03-04 18:40:00,
2013-03-05 05:45:00,69.3,61.7,29.96,ESE,122,0.0,0.0,77,0.00,CLR,,0.00,WeatherDisplay:10.37,2013-03-04 18:45:00,
2013-03-05 05:50:00,69.2,61.7,29.96,East,97,0.0,0.0,77,0.00,CLR,,0.00,WeatherDisplay:10.37,2013-03-04 18:50:00,
2013-03-05 05:55:00,69.2,61.6,29.96,East,80,0.0,2.0,77,0.00,CLR,,0.00,WeatherDisplay:10.37,2013-03-04 18:55:00,
2013-03-05 06:00:00,69.1,61.6,29.97,East,93,0.0,0.0,77,0.00,CLR,,0.00,WeatherDisplay:10.37,2013-03-04 19:00:00,
2013-03-05 06:05:00,69.1,61.6,29.97,ESE,104,0.0,0.0,77,0.00,CLR,,0.00,WeatherDisplay:10.37,2013-03-04 19:05:00,
2013-03-05 06:10:00,69.1,61.6,29.97,East,99,0.0,1.0,77,0.00,CLR,,0.00,WeatherDisplay:10.37,2013-03-04 19:10:00,
2013-03-05 06:15:00,69.1,61.6,29.97,ESE,103,0.0,0.0,77,0.00,CLR,,0.00,WeatherDisplay:10.37,2013-03-04 19:15:00,
2013-03-05 06:20:00,69.0,61.5,29.97,SSE,157,0.0,0.0,77,0.00,CLR,,0.00,WeatherDisplay:10.37,2013-03-04 19:20:00,
2013-03-05 06:25:00,68.9,61.4,29.97,SE,127,0.0,0.0,77,0.00,CLR,,0.00,WeatherDisplay:10.37,2013-03-04 19:25:00,
2013-03-05 06:30:00,68.9,61.4,29.97,SE,131,0.0,0.0,77,0.00,CLR,,0.00,WeatherDisplay:10.37,2013-03-04 19:30:00,
2013-03-05 06:35:00,68.9,61.4,29.97,SE,140,0.0,0.0,77,0.00,CLR,,0.00,WeatherDisplay:10.37,2013-03-04 19:35:00,
2013-03-05 06:40:00,68.7,61.2,29.97,SE,135,0.0,0.0,77,0.00,CLR,,0.00,WeatherDisplay:10.37,2013-03-04 19:40:00,
2013-03-05 06:45:00,68.7,60.8,29.98,SE,131,0.0,0.0,76,0.00,CLR,,0.00,WeatherDisplay:10.37,2013-03-04 19:45:00,
2013-03-05 06:50:00,68.5,60.7,29.97,SE,146,0.0,0.0,76,0.00,CLR,,0.00,WeatherDisplay:10.37,2013-03-04 19:50:00,
2013-03-05 06:55:00,68.5,60.7,29.98,South,177,0.0,0.0,76,0.00,CLR,,0.00,WeatherDisplay:10.37,2013-03-04 19:55:00,
2013-03-05 07:00:00,68.5,60.7,29.98,South,173,0.0,0.0,76,0.00,CLR,,0.00,WeatherDisplay:10.37,2013-03-04 20:00:00,
2013-03-05 07:05:00,68.5,60.6,29.98,SE,128,0.0,0.0,76,0.00,CLR,,0.00,WeatherDisplay:10.37,2013-03-04 20:05:00,
2013-03-05 07:10:00,68.4,60.5,29.98,SE,137,0.0,0.0,76,0.00,CLR,,0.00,WeatherDisplay:10.37,2013-03-04 20:10:00,
2013-03-05 07:15:00,68.4,60.5,29.98,SE,142,0.0,0.0,76,0.00,CLR,,0.00,WeatherDisplay:10.37,2013-03-04 20:15:00,
2013-03-05 07:20:00,68.3,60.8,29.99,ESE,119,0.0,0.0,77,0.00,CLR,,0.00,WeatherDisplay:10.37,2013-03-04 20:20:00,
2013-03-05 07:25:00,68.3,60.8,29.99,ESE,109,0.0,0.0,77,0.00,CLR,,0.00,WeatherDisplay:10.37,2013-03-04 20:25:00,
2013-03-05 07:30:00,68.4,60.9,29.99,East,86,0.0,0.0,77,0.00,CLR,,0.00,WeatherDisplay:10.37,2013-03-04 20:30:00,
2013-03-05 07:35:00,68.2,60.7,29.99,ENE,64,0.0,0.0,77,0.00,CLR,,0.00,WeatherDisplay:10.37,2013-03-04 20:35:00,
2013-03-05 07:40:00,68.2,60.7,29.99,ENE,65,0.0,0.0,77,0.00,CLR,,0.00,WeatherDisplay:10.37,2013-03-04 20:40:00,
2013-03-05 07:45:00,68.2,61.1,29.99,ENE,66,0.0,0.0,78,0.00,CLR,,0.00,WeatherDisplay:10.37,2013-03-04 20:45:00,
2013-03-05 07:50:00,68.2,61.1,29.99,NE,53,0.0,0.0,78,0.00,CLR,,0.00,WeatherDisplay:10.37,2013-03-04 20:50:00,
2013-03-05 07:55:00,68.4,61.2,30.00,NE,46,0.0,0.0,78,0.00,CLR,,0.00,WeatherDisplay:10.37,2013-03-04 20:55:00,
2013-03-05 08:01:00,68.4,61.6,30.00,NE,40,0.0,0.0,79,0.00,CLR,,0.00,WeatherDisplay:10.37,2013-03-04 21:01:00,
2013-03-05 08:10:00,68.9,62.1,29.99,ENE,72,0.0,2.0,79,0.00,CLR,,0.00,WeatherDisplay:10.37,2013-03-04 21:10:00,
2013-03-05 08:15:00,69.3,62.5,30.00,NE,42,0.0,2.0,79,0.00,CLR,,0.00,WeatherDisplay:10.37,2013-03-04 21:15:00,
2013-03-05 08:20:00,69.6,62.8,30.00,ENE,78,0.0,0.0,79,0.00,CLR,,0.00,WeatherDisplay:10.37,2013-03-04 21:20:00,
2013-03-05 08:25:00,70.2,63.0,30.00,ESE,111,0.0,5.0,78,0.00,CLR,,0.00,WeatherDisplay:10.37,2013-03-04 21:25:00,
2013-03-05 08:30:00,70.6,63.0,30.00,NE,46,0.0,3.0,77,0.00,CLR,,0.00,WeatherDisplay:10.37,2013-03-04 21:30:00,
2013-03-05 08:35:00,70.9,62.9,30.00,NNE,23,0.0,2.0,76,0.00,CLR,,0.00,WeatherDisplay:10.37,2013-03-04 21:35:00,
2013-03-05 08:40:00,71.3,63.3,30.00,NE,46,0.0,3.0,76,0.00,CLR,,0.00,WeatherDisplay:10.37,2013-03-04 21:40:00,
2013-03-05 08:46:00,71.8,63.4,30.00,ENE,67,0.0,2.0,75,0.00,CLR,,0.00,WeatherDisplay:10.37,2013-03-04 21:46:00,
2013-03-05 08:51:00,72.0,62.8,30.00,NE,34,1.0,4.0,73,0.00,CLR,,0.00,WeatherDisplay:10.37,2013-03-04 21:51:00,
2013-03-05 09:00:00,72.4,63.3,30.00,East,86,1.0,5.0,73,0.00,CLR,,0.00,WeatherDisplay:10.37,2013-03-04 22:00:00,
2013-03-05 09:05:00,72.9,63.3,30.01,ENE,77,1.0,5.0,72,0.00,CLR,,0.00,WeatherDisplay:10.37,2013-03-04 22:05:00,
2013-03-05 09:10:00,73.2,63.2,30.01,NE,51,1.0,4.0,71,0.00,CLR,,0.00,WeatherDisplay:10.37,2013-03-04 22:10:00,
2013-03-05 09:15:00,73.7,63.7,30.01,ENE,64,2.0,7.0,71,0.00,CLR,,0.00,WeatherDisplay:10.37,2013-03-04 22:15:00,
2013-03-05 09:20:00,73.9,63.9,30.01,ENE,67,3.0,5.0,71,0.00,CLR,,0.00,WeatherDisplay:10.37,2013-03-04 22:20:00,
2013-03-05 09:25:00,74.5,64.1,30.00,East,79,1.0,4.0,70,0.00,CLR,,0.00,WeatherDisplay:10.37,2013-03-04 22:25:00,
2013-03-05 09:30:00,75.0,64.6,30.01,East,89,1.0,5.0,70,0.00,CLR,,0.00,WeatherDisplay:10.37,2013-03-04 22:30:00,
2013-03-05 09:35:00,75.5,64.6,30.01,East,95,2.0,6.0,69,0.00,CLR,,0.00,WeatherDisplay:10.37,2013-03-04 22:35:00,
2013-03-05 09:40:00,75.9,64.6,30.00,West,273,3.0,8.0,68,0.00,CLR,,0.00,WeatherDisplay:10.37,2013-03-04 22:40:00,
2013-03-05 09:45:00,76.0,64.7,30.01,West,272,1.0,8.0,68,0.00,CLR,,0.00,WeatherDisplay:10.37,2013-03-04 22:45:00,
2013-03-05 09:50:00,75.9,64.6,30.01,NE,52,1.0,5.0,68,0.00,CLR,,0.00,WeatherDisplay:10.37,2013-03-04 22:50:00,
2013-03-05 09:55:00,76.0,64.2,30.01,NNE,29,2.0,7.0,67,0.00,CLR,,0.00,WeatherDisplay:10.37,2013-03-04 22:55:00,
2013-03-05 10:00:00,76.5,64.7,30.01,NE,41,5.0,11.0,67,0.00,CLR,,0.00,WeatherDisplay:10.37,2013-03-04 23:00:00,
2013-03-05 10:05:00,76.8,65.0,30.01,NE,48,1.0,7.0,67,0.00,CLR,,0.00,WeatherDisplay:10.37,2013-03-04 23:05:00,
2013-03-05 10:10:00,77.2,64.5,30.01,NE,46,1.0,8.0,65,0.00,CLR,,0.00,WeatherDisplay:10.37,2013-03-04 23:10:00,
2013-03-05 10:15:00,77.4,64.7,30.01,NNE,31,3.0,6.0,65,0.00,CLR,,0.00,WeatherDisplay:10.37,2013-03-04 23:15:00,
2013-03-05 10:20:00,77.4,64.3,30.01,NNE,31,3.0,14.0,64,0.00,CLR,,0.00,WeatherDisplay:10.37,2013-03-04 23:20:00,
2013-03-05 10:30:00,77.5,64.4,30.01,North,11,6.0,10.0,64,0.00,CLR,,0.00,WeatherDisplay:10.37,2013-03-04 23:30:00,
2013-03-05 10:35:00,77.7,64.6,30.01,NNE,18,3.0,12.0,64,0.00,CLR,,0.00,WeatherDisplay:10.37,2013-03-04 23:35:00,
2013-03-05 10:41:00,77.5,64.3,30.01,ENE,72,2.0,5.0,64,0.00,CLR,,0.00,WeatherDisplay:10.37,2013-03-04 23:41:00,
2013-03-05 10:50:00,77.2,64.5,30.01,NE,47,1.0,6.0,65,0.00,CLR,,0.00,WeatherDisplay:10.37,2013-03-04 23:50:00,
2013-03-05 10:55:00,77.1,64.4,30.01,NE,49,2.0,7.0,65,0.00,CLR,,0.00,WeatherDisplay:10.37,2013-03-04 23:55:00,
2013-03-05 11:00:00,77.0,64.8,30.01,North,10,2.0,8.0,66,0.00,CLR,,0.00,WeatherDisplay:10.37,2013-03-05 00:00:00,
2013-03-05 11:05:00,77.3,64.6,30.01,NNE,21,3.0,10.0,65,0.00,CLR,,0.00,WeatherDisplay:10.37,2013-03-05 00:05:00,
2013-03-05 11:10:00,77.5,64.4,30.01,North,5,2.0,9.0,64,0.00,CLR,,0.00,WeatherDisplay:10.37,2013-03-05 00:10:00,
2013-03-05 11:15:00,77.7,64.5,30.01,East,84,5.0,9.0,64,0.00,CLR,,0.00,WeatherDisplay:10.37,2013-03-05 00:15:00,
2013-03-05 11:20:00,78.1,64.4,30.01,NE,49,3.0,8.0,63,0.00,CLR,,0.00,WeatherDisplay:10.37,2013-03-05 00:20:00,
2013-03-05 11:25:00,78.6,64.5,30.01,NNE,16,2.0,10.0,62,0.00,CLR,,0.00,WeatherDisplay:10.37,2013-03-05 00:25:00,
2013-03-05 11:30:00,79.1,64.5,30.01,NNE,13,1.0,7.0,61,0.00,CLR,,0.00,WeatherDisplay:10.37,2013-03-05 00:30:00,
2013-03-05 11:35:00,79.7,65.1,30.01,NNE,22,6.0,11.0,61,0.00,CLR,,0.00,WeatherDisplay:10.37,2013-03-05 00:35:00,
2013-03-05 11:40:00,80.2,65.1,30.00,NNE,27,3.0,10.0,60,0.00,CLR,,0.00,WeatherDisplay:10.37,2013-03-05 00:40:00,
2013-03-05 11:45:00,80.5,65.3,30.00,NNE,21,3.0,7.0,60,0.00,CLR,,0.00,WeatherDisplay:10.37,2013-03-05 00:45:00,
2013-03-05 11:50:00,80.8,65.1,30.00,NNE,26,2.0,13.0,59,0.00,CLR,,0.00,WeatherDisplay:10.37,2013-03-05 00:50:00,
2013-03-05 11:55:00,81.0,64.8,30.00,NNE,31,7.0,13.0,58,0.00,CLR,,0.00,WeatherDisplay:10.37,2013-03-05 00:55:00,
2013-03-05 12:00:00,81.2,65.0,30.00,NNE,19,2.0,10.0,58,0.00,CLR,,0.00,WeatherDisplay:10.37,2013-03-05 01:00:00,
2013-03-05 12:05:00,81.6,64.8,30.00,NNE,17,6.0,12.0,57,0.00,CLR,,0.00,WeatherDisplay:10.37,2013-03-05 01:05:00,
2013-03-05 12:10:00,81.4,64.2,30.00,NNE,26,6.0,10.0,56,0.00,CLR,,0.00,WeatherDisplay:10.37,2013-03-05 01:10:00,
2013-03-05 12:15:00,81.5,64.8,30.00,North,1,6.0,13.0,57,0.00,CLR,,0.00,WeatherDisplay:10.37,2013-03-05 01:15:00,
2013-03-05 12:20:00,81.8,65.1,29.99,NNW,343,2.0,7.0,57,0.00,CLR,,0.00,WeatherDisplay:10.37,2013-03-05 01:20:00,
2013-03-05 12:25:00,82.0,64.8,30.00,WNW,303,2.0,7.0,56,0.00,CLR,,0.00,WeatherDisplay:10.37,2013-03-05 01:25:00,
2013-03-05 12:30:00,81.7,65.0,29.99,NNW,333,3.0,7.0,57,0.00,CLR,,0.00,WeatherDisplay:10.37,2013-03-05 01:30:00,
2013-03-05 12:35:00,81.4,65.2,30.00,NNE,26,1.0,7.0,58,0.00,CLR,,0.00,WeatherDisplay:10.37,2013-03-05 01:35:00,
2013-03-05 12:40:00,81.1,64.5,30.00,NW,323,5.0,9.0,57,0.00,CLR,,0.00,WeatherDisplay:10.37,2013-03-05 01:40:00,
2013-03-05 12:45:00,80.7,64.1,30.00,NW,322,5.0,9.0,57,0.00,CLR,,0.00,WeatherDisplay:10.37,2013-03-05 01:45:00,
2013-03-05 12:50:00,80.4,63.8,29.99,NE,41,2.0,10.0,57,0.00,CLR,,0.00,WeatherDisplay:10.37,2013-03-05 01:50:00,
2013-03-05 12:55:00,80.2,63.6,29.99,NNE,31,3.0,16.0,57,0.00,CLR,,0.00,WeatherDisplay:10.37,2013-03-05 01:55:00,
2013-03-05 13:01:00,80.0,63.4,29.99,ENE,59,3.0,16.0,57,0.00,CLR,,0.00,WeatherDisplay:10.37,2013-03-05 02:01:00,
2013-03-05 13:10:00,80.4,64.2,29.98,NNE,27,5.0,7.0,58,0.00,CLR,,0.00,WeatherDisplay:10.37,2013-03-05 02:10:00,
2013-03-05 13:15:00,80.4,63.8,29.99,North,3,1.0,9.0,57,0.00,CLR,,0.00,WeatherDisplay:10.37,2013-03-05 02:15:00,
2013-03-05 13:20:00,80.4,63.8,29.99,NNE,21,2.0,14.0,57,0.00,CLR,,0.00,WeatherDisplay:10.37,2013-03-05 02:20:00,
2013-03-05 13:25:00,80.4,63.8,29.99,North,349,1.0,13.0,57,0.00,CLR,,0.00,WeatherDisplay:10.37,2013-03-05 02:25:00,
2013-03-05 13:30:00,80.4,63.8,29.98,NW,325,2.0,6.0,57,0.00,CLR,,0.00,WeatherDisplay:10.37,2013-03-05 02:30:00,
2013-03-05 13:35:00,80.4,63.8,29.98,North,9,2.0,12.0,57,0.00,CLR,,0.00,WeatherDisplay:10.37,2013-03-05 02:35:00,
2013-03-05 13:40:00,80.5,63.9,29.98,ENE,60,2.0,8.0,57,0.00,CLR,,0.00,WeatherDisplay:10.37,2013-03-05 02:40:00,
2013-03-05 13:45:00,80.8,64.1,29.97,NE,52,1.0,5.0,57,0.00,CLR,,0.00,WeatherDisplay:10.37,2013-03-05 02:45:00,
2013-03-05 13:50:00,81.2,64.5,29.97,NNE,24,1.0,8.0,57,0.00,CLR,,0.00,WeatherDisplay:10.37,2013-03-05 02:50:00,
2013-03-05 13:55:00,81.7,63.9,29.97,NNE,16,1.0,8.0,55,0.00,CLR,,0.00,WeatherDisplay:10.37,2013-03-05 02:55:00,
2013-03-05 14:00:00,82.0,64.8,29.97,North,360,5.0,12.0,56,0.00,CLR,,0.00,WeatherDisplay:10.37,2013-03-05 03:00:00,
2013-03-05 14:05:00,81.9,64.2,29.97,North,2,6.0,12.0,55,0.00,CLR,,0.00,WeatherDisplay:10.37,2013-03-05 03:05:00,
2013-03-05 14:10:00,82.0,64.3,29.97,North,2,1.0,6.0,55,0.00,CLR,,0.00,WeatherDisplay:10.37,2013-03-05 03:10:00,
2013-03-05 14:15:00,82.2,64.4,29.97,NNW,331,1.0,6.0,55,0.00,CLR,,0.00,WeatherDisplay:10.37,2013-03-05 03:15:00,
2013-03-05 14:20:00,82.1,63.8,29.96,North,356,1.0,8.0,54,0.00,CLR,,0.00,WeatherDisplay:10.37,2013-03-05 03:20:00,
2013-03-05 14:25:00,82.1,63.8,29.97,NNW,329,5.0,12.0,54,0.00,CLR,,0.00,WeatherDisplay:10.37,2013-03-05 03:25:00,
2013-03-05 14:30:00,82.2,63.9,29.96,NNW,327,1.0,12.0,54,0.00,CLR,,0.00,WeatherDisplay:10.37,2013-03-05 03:30:00,
2013-03-05 14:35:00,82.6,64.3,29.97,North,349,3.0,8.0,54,0.00,CLR,,0.00,WeatherDisplay:10.37,2013-03-05 03:35:00,
2013-03-05 14:40:00,83.1,64.2,29.96,NNE,20,5.0,14.0,53,0.00,CLR,,0.00,WeatherDisplay:10.37,2013-03-05 03:40:00,
2013-03-05 14:45:00,83.1,63.7,29.96,NNE,13,8.0,12.0,52,0.00,CLR,,0.00,WeatherDisplay:10.37,2013-03-05 03:45:00,
2013-03-05 14:50:00,83.3,63.3,29.95,NNE,13,9.0,18.0,51,0.00,CLR,,0.00,WeatherDisplay:10.37,2013-03-05 03:50:00,
2013-03-05 14:55:00,83.1,62.6,29.96,NNE,19,6.0,9.0,50,0.00,CLR,,0.00,WeatherDisplay:10.37,2013-03-05 03:55:00,
2013-03-05 15:00:00,83.1,63.1,29.96,North,360,5.0,12.0,51,0.00,CLR,,0.00,WeatherDisplay:10.37,2013-03-05 04:00:00,
2013-03-05 15:05:00,83.2,63.2,29.96,NNE,28,6.0,16.0,51,0.00,CLR,,0.00,WeatherDisplay:10.37,2013-03-05 04:05:00,
2013-03-05 15:10:00,83.3,63.3,29.95,NNE,22,7.0,9.0,51,0.00,CLR,,0.00,WeatherDisplay:10.37,2013-03-05 04:10:00,
2013-03-05 15:15:00,83.3,63.3,29.95,North,349,6.0,12.0,51,0.00,CLR,,0.00,WeatherDisplay:10.37,2013-03-05 04:15:00,
2013-03-05 15:20:00,83.1,63.1,29.95,NNE,18,7.0,11.0,51,0.00,CLR,,0.00,WeatherDisplay:10.37,2013-03-05 04:20:00,
2013-03-05 15:25:00,82.9,63.0,29.95,NNE,14,1.0,12.0,51,0.00,CLR,,0.00,WeatherDisplay:10.37,2013-03-05 04:25:00,
2013-03-05 15:30:00,82.9,62.9,29.95,North,356,9.0,15.0,51,0.00,CLR,,0.00,WeatherDisplay:10.37,2013-03-05 04:30:00,
2013-03-05 15:35:00,82.6,62.7,29.95,NNW,343,10.0,12.0,51,0.00,CLR,,0.00,WeatherDisplay:10.37,2013-03-05 04:35:00,
2013-03-05 15:40:00,82.6,62.6,29.95,North,353,5.0,11.0,51,0.00,CLR,,0.00,WeatherDisplay:10.37,2013-03-05 04:40:00,
2013-03-05 15:45:00,82.6,62.6,29.95,North,353,6.0,13.0,51,0.00,CLR,,0.00,WeatherDisplay:10.37,2013-03-05 04:45:00,
2013-03-05 15:50:00,82.2,62.8,29.95,North,356,5.0,17.0,52,0.00,CLR,,0.00,WeatherDisplay:10.37,2013-03-05 04:50:00,
2013-03-05 16:00:00,82.2,62.8,29.95,NNE,23,6.0,10.0,52,0.00,CLR,,0.00,WeatherDisplay:10.37,2013-03-05 05:00:00,
2013-03-05 16:05:00,82.2,62.8,29.95,North,354,7.0,15.0,52,0.00,CLR,,0.00,WeatherDisplay:10.37,2013-03-05 05:05:00,
2013-03-05 16:10:00,82.0,62.7,29.95,North,8,6.0,20.0,52,0.00,CLR,,0.00,WeatherDisplay:10.37,2013-03-05 05:10:00,
2013-03-05 16:15:00,82.0,62.1,29.95,NE,36,6.0,9.0,51,0.00,CLR,,0.00,WeatherDisplay:10.37,2013-03-05 05:15:00,
2013-03-05 16:20:00,81.9,62.6,29.95,NNE,23,3.0,9.0,52,0.00,CLR,,0.00,WeatherDisplay:10.37,2013-03-05 05:20:00,
2013-03-05 16:25:00,81.8,62.5,29.95,NNW,347,5.0,9.0,52,0.00,CLR,,0.00,WeatherDisplay:10.37,2013-03-05 05:25:00,
2013-03-05 16:30:00,82.0,62.6,29.95,NNW,327,6.0,10.0,52,0.00,CLR,,0.00,WeatherDisplay:10.37,2013-03-05 05:30:00,
2013-03-05 16:35:00,81.7,62.3,29.95,NNW,346,8.0,12.0,52,0.00,CLR,,0.00,WeatherDisplay:10.37,2013-03-05 05:35:00,
2013-03-05 16:40:00,81.3,62.0,29.95,NNE,15,2.0,9.0,52,0.00,CLR,,0.00,WeatherDisplay:10.37,2013-03-05 05:40:00,
2013-03-05 16:50:00,81.1,62.4,29.95,NE,34,2.0,10.0,53,0.00,CLR,,0.00,WeatherDisplay:10.37,2013-03-05 05:50:00,
2013-03-05 16:55:00,81.1,61.8,29.95,NE,39,6.0,15.0,52,0.00,CLR,,0.00,WeatherDisplay:10.37,2013-03-05 05:55:00,
2013-03-05 17:00:00,81.0,61.7,29.95,NE,48,3.0,10.0,52,0.00,CLR,,0.00,WeatherDisplay:10.37,2013-03-05 06:00:00,
2013-03-05 17:05:00,81.0,61.7,29.95,NE,49,5.0,17.0,52,0.00,CLR,,0.00,WeatherDisplay:10.37,2013-03-05 06:05:00,
2013-03-05 17:10:00,80.8,61.5,29.95,NE,40,3.0,10.0,52,0.00,CLR,,0.00,WeatherDisplay:10.37,2013-03-05 06:10:00,
2013-03-05 17:15:00,80.8,62.1,29.95,NNE,14,2.0,7.0,53,0.00,CLR,,0.00,WeatherDisplay:10.37,2013-03-05 06:15:00,
2013-03-05 17:20:00,80.8,62.6,29.95,NNE,27,2.0,5.0,54,0.00,CLR,,0.00,WeatherDisplay:10.37,2013-03-05 06:20:00,
2013-03-05 17:25:00,80.7,62.5,29.95,NE,50,3.0,7.0,54,0.00,CLR,,0.00,WeatherDisplay:10.37,2013-03-05 06:25:00,
2013-03-05 17:31:00,80.4,62.2,29.95,NNE,33,1.0,7.0,54,0.00,CLR,,0.00,WeatherDisplay:10.37,2013-03-05 06:31:00,
2013-03-05 17:35:00,80.2,62.6,29.95,NNE,29,2.0,8.0,55,0.00,CLR,,0.00,WeatherDisplay:10.37,2013-03-05 06:35:00,
2013-03-05 17:40:00,80.2,62.6,29.95,NE,50,0.0,6.0,55,0.00,CLR,,0.00,WeatherDisplay:10.37,2013-03-05 06:40:00,
2013-03-05 17:50:00,79.8,62.7,29.96,NE,48,2.0,8.0,56,0.00,CLR,,0.00,WeatherDisplay:10.37,2013-03-05 06:50:00,
2013-03-05 17:55:00,79.5,62.9,29.96,NE,50,2.0,7.0,57,0.00,CLR,,0.00,WeatherDisplay:10.37,2013-03-05 06:55:00,
2013-03-05 18:00:00,79.2,62.6,29.96,NNE,18,1.0,6.0,57,0.00,CLR,,0.00,WeatherDisplay:10.37,2013-03-05 07:00:00,
2013-03-05 18:05:00,79.0,62.4,29.96,ENE,76,1.0,9.0,57,0.00,CLR,,0.00,WeatherDisplay:10.37,2013-03-05 07:05:00,
2013-03-05 18:10:00,78.6,62.6,29.96,East,88,0.0,6.0,58,0.00,CLR,,0.00,WeatherDisplay:10.37,2013-03-05 07:10:00,
2013-03-05 18:15:00,78.6,62.6,29.96,ENE,60,2.0,8.0,58,0.00,CLR,,0.00,WeatherDisplay:10.37,2013-03-05 07:15:00,
2013-03-05 18:20:00,78.4,62.4,29.96,NE,50,2.0,8.0,58,0.00,CLR,,0.00,WeatherDisplay:10.37,2013-03-05 07:20:00,
2013-03-05 18:25:00,78.1,62.1,29.96,NE,51,2.0,9.0,58,0.00,CLR,,0.00,WeatherDisplay:10.37,2013-03-05 07:25:00,
2013-03-05 18:30:00,77.7,62.2,29.96,NE,38,1.0,7.0,59,0.00,CLR,,0.00,WeatherDisplay:10.37,2013-03-05 07:30:00,
2013-03-05 18:35:00,77.5,62.6,29.97,NE,49,2.0,8.0,60,0.00,CLR,,0.00,WeatherDisplay:10.37,2013-03-05 07:35:00,
2013-03-05 18:40:00,77.4,62.4,29.97,NNE,23,1.0,8.0,60,0.00,CLR,,0.00,WeatherDisplay:10.37,2013-03-05 07:40:00,
2013-03-05 18:45:00,77.2,62.7,29.97,NNE,21,3.0,8.0,61,0.00,CLR,,0.00,WeatherDisplay:10.37,2013-03-05 07:45:00,
2013-03-05 18:50:00,76.8,62.3,29.96,NNE,25,0.0,8.0,61,0.00,CLR,,0.00,WeatherDisplay:10.37,2013-03-05 07:50:00,
2013-03-05 18:55:00,76.6,62.2,29.96,NNE,22,1.0,7.0,61,0.00,CLR,,0.00,WeatherDisplay:10.37,2013-03-05 07:55:00,
2013-03-05 19:00:00,76.6,62.1,29.96,NNE,33,3.0,8.0,61,0.00,CLR,,0.00,WeatherDisplay:10.37,2013-03-05 08:00:00,
2013-03-05 19:05:00,76.3,61.8,29.96,NE,43,3.0,6.0,61,0.00,CLR,,0.00,WeatherDisplay:10.37,2013-03-05 08:05:00,
2013-03-05 19:10:00,76.1,62.1,29.97,NNE,21,1.0,8.0,62,0.00,CLR,,0.00,WeatherDisplay:10.37,2013-03-05 08:10:00,
2013-03-05 19:15:00,75.9,62.0,29.96,NNE,30,1.0,3.0,62,0.00,CLR,,0.00,WeatherDisplay:10.37,2013-03-05 08:15:00,
2013-03-05 19:20:00,75.9,62.0,29.96,NNE,31,5.0,9.0,62,0.00,CLR,,0.00,WeatherDisplay:10.37,2013-03-05 08:20:00,
2013-03-05 19:25:00,75.7,62.2,29.96,NE,37,2.0,5.0,63,0.00,CLR,,0.00,WeatherDisplay:10.37,2013-03-05 08:25:00,
2013-03-05 19:30:00,75.6,62.1,29.96,NE,35,0.0,3.0,63,0.00,CLR,,0.00,WeatherDisplay:10.37,2013-03-05 08:30:00,
2013-03-05 19:35:00,75.4,61.9,29.96,NE,38,1.0,3.0,63,0.00,CLR,,0.00,WeatherDisplay:10.37,2013-03-05 08:35:00,
2013-03-05 19:40:00,75.4,62.4,29.97,NE,44,0.0,4.0,64,0.00,CLR,,0.00,WeatherDisplay:10.37,2013-03-05 08:40:00,
2013-03-05 19:45:00,75.2,62.1,29.97,NE,45,1.0,5.0,64,0.00,CLR,,0.00,WeatherDisplay:10.37,2013-03-05 08:45:00,
2013-03-05 19:50:00,75.0,62.0,29.97,ENE,57,1.0,3.0,64,0.00,CLR,,0.00,WeatherDisplay:10.37,2013-03-05 08:50:00,
2013-03-05 19:55:00,75.0,62.5,29.97,NE,42,2.0,4.0,65,0.00,CLR,,0.00,WeatherDisplay:10.37,2013-03-05 08:55:00,
2013-03-05 20:00:00,74.8,62.3,29.98,ENE,73,1.0,3.0,65,0.00,CLR,,0.00,WeatherDisplay:10.37,2013-03-05 09:00:00,
2013-03-05 20:05:00,74.8,62.3,29.98,East,86,1.0,9.0,65,0.00,CLR,,0.00,WeatherDisplay:10.37,2013-03-05 09:05:00,
2013-03-05 20:10:00,74.7,62.1,29.98,East,91,0.0,3.0,65,0.00,CLR,,0.00,WeatherDisplay:10.37,2013-03-05 09:10:00,
2013-03-05 20:15:00,74.6,62.5,29.98,ENE,70,0.0,8.0,66,0.00,CLR,,0.00,WeatherDisplay:10.37,2013-03-05 09:15:00,
2013-03-05 20:20:00,74.5,62.4,29.98,NE,51,0.0,4.0,66,0.00,CLR,,0.00,WeatherDisplay:10.37,2013-03-05 09:20:00,
2013-03-05 20:25:00,74.5,62.4,29.99,ENE,71,0.0,4.0,66,0.00,CLR,,0.00,WeatherDisplay:10.37,2013-03-05 09:25:00,
2013-03-05 20:30:00,74.3,62.7,29.98,East,84,1.0,7.0,67,0.00,CLR,,0.00,WeatherDisplay:10.37,2013-03-05 09:30:00,
2013-03-05 20:35:00,74.3,63.1,29.99,ENE,75,0.0,5.0,68,0.00,CLR,,0.00,WeatherDisplay:10.37,2013-03-05 09:35:00,
2013-03-05 20:40:00,74.1,62.9,29.99,ENE,59,0.0,3.0,68,0.00,CLR,,0.00,WeatherDisplay:10.37,2013-03-05 09:40:00,
2013-03-05 20:45:00,74.0,62.8,29.99,North,10,0.0,4.0,68,0.00,CLR,,0.00,WeatherDisplay:10.37,2013-03-05 09:45:00,
2013-03-05 20:50:00,73.9,62.7,29.99,NNE,13,0.0,2.0,68,0.00,CLR,,0.00,WeatherDisplay:10.37,2013-03-05 09:50:00,
2013-03-05 20:55:00,73.9,63.1,29.99,NNE,24,0.0,3.0,69,0.00,CLR,,0.00,WeatherDisplay:10.37,2013-03-05 09:55:00,
2013-03-05 21:00:00,73.9,63.1,29.99,North,8,0.0,3.0,69,0.00,CLR,,0.00,WeatherDisplay:10.37,2013-03-05 10:00:00,
2013-03-05 21:05:00,73.9,63.1,29.99,North,352,0.0,4.0,69,0.00,CLR,,0.00,WeatherDisplay:10.37,2013-03-05 10:05:00,
2013-03-05 21:10:00,73.8,63.0,30.00,North,5,0.0,2.0,69,0.00,CLR,,0.00,WeatherDisplay:10.37,2013-03-05 10:10:00,
2013-03-05 21:15:00,73.8,63.0,30.00,North,5,0.0,2.0,69,0.00,CLR,,0.00,WeatherDisplay:10.37,2013-03-05 10:15:00,
2013-03-05 21:20:00,73.8,63.0,30.00,ESE,111,2.0,6.0,69,0.00,CLR,,0.00,WeatherDisplay:10.37,2013-03-05 10:20:00,
2013-03-05 21:25:00,73.8,63.0,30.00,East,83,0.0,6.0,69,0.00,CLR,,0.00,WeatherDisplay:10.37,2013-03-05 10:25:00,
2013-03-05 21:30:00,73.6,62.8,30.00,ENE,71,0.0,2.0,69,0.00,CLR,,0.00,WeatherDisplay:10.37,2013-03-05 10:30:00,
2013-03-05 21:35:00,73.6,62.8,30.00,NE,47,1.0,3.0,69,0.00,CLR,,0.00,WeatherDisplay:10.37,2013-03-05 10:35:00,
2013-03-05 21:40:00,73.6,62.8,30.00,ENE,64,1.0,5.0,69,0.00,CLR,,0.00,WeatherDisplay:10.37,2013-03-05 10:40:00,
2013-03-05 21:45:00,73.6,62.8,30.00,ENE,78,1.0,4.0,69,0.00,CLR,,0.00,WeatherDisplay:10.37,2013-03-05 10:45:00,
2013-03-05 21:50:00,73.6,62.8,30.00,ENE,64,0.0,2.0,69,0.00,CLR,,0.00,WeatherDisplay:10.37,2013-03-05 10:50:00,
2013-03-05 22:00:00,73.6,62.8,30.00,East,93,0.0,4.0,69,0.00,CLR,,0.00,WeatherDisplay:10.37,2013-03-05 11:00:00,
2013-03-05 22:05:00,73.6,62.8,30.00,East,93,0.0,3.0,69,0.00,CLR,,0.00,WeatherDisplay:10.37,2013-03-05 11:05:00,
2013-03-05 22:10:00,73.6,62.8,30.00,ENE,69,0.0,2.0,69,0.00,CLR,,0.00,WeatherDisplay:10.37,2013-03-05 11:10:00,
2013-03-05 22:15:00,73.6,63.2,30.00,ENE,63,1.0,6.0,70,0.00,CLR,,0.00,WeatherDisplay:10.37,2013-03-05 11:15:00,
2013-03-05 22:20:00,73.6,63.2,30.00,NE,56,0.0,0.0,70,0.00,CLR,,0.00,WeatherDisplay:10.37,2013-03-05 11:20:00,
2013-03-05 22:25:00,73.6,63.2,30.00,ENE,58,0.0,2.0,70,0.00,CLR,,0.00,WeatherDisplay:10.37,2013-03-05 11:25:00,
2013-03-05 22:30:00,73.6,63.2,30.00,ENE,66,1.0,6.0,70,0.00,CLR,,0.00,WeatherDisplay:10.37,2013-03-05 11:30:00,
2013-03-05 22:35:00,73.6,63.2,30.00,ENE,66,0.0,3.0,70,0.00,CLR,,0.00,WeatherDisplay:10.37,2013-03-05 11:35:00,
2013-03-05 22:40:00,73.6,63.2,30.00,ENE,73,0.0,3.0,70,0.00,CLR,,0.00,WeatherDisplay:10.37,2013-03-05 11:40:00,
2013-03-05 22:45:00,73.6,63.2,29.99,ENE,65,0.0,4.0,70,0.00,CLR,,0.00,WeatherDisplay:10.37,2013-03-05 11:45:00,
2013-03-05 22:50:00,73.6,63.2,29.99,ENE,59,0.0,2.0,70,0.00,CLR,,0.00,WeatherDisplay:10.37,2013-03-05 11:50:00,
2013-03-05 22:55:00,73.6,63.2,29.99,NE,53,0.0,2.0,70,0.00,CLR,,0.00,WeatherDisplay:10.37,2013-03-05 11:55:00,
2013-03-05 23:00:00,73.6,63.6,29.99,ENE,73,0.0,8.0,71,0.00,CLR,,0.00,WeatherDisplay:10.37,2013-03-05 12:00:00,
2013-03-05 23:05:00,73.6,63.6,29.99,NE,51,0.0,3.0,71,0.00,CLR,,0.00,WeatherDisplay:10.37,2013-03-05 12:05:00,
2013-03-05 23:10:00,73.6,63.6,29.99,North,358,0.0,2.0,71,0.00,CLR,,0.00,WeatherDisplay:10.37,2013-03-05 12:10:00,
2013-03-05 23:15:00,73.6,63.6,29.99,ENE,74,0.0,2.0,71,0.00,CLR,,0.00,WeatherDisplay:10.37,2013-03-05 12:15:00,
2013-03-05 23:20:00,73.6,63.6,29.99,ESE,113,0.0,2.0,71,0.00,CLR,,0.00,WeatherDisplay:10.37,2013-03-05 12:20:00,
2013-03-05 23:25:00,73.6,63.6,29.99,ENE,65,1.0,4.0,71,0.00,CLR,,0.00,WeatherDisplay:10.37,2013-03-05 12:25:00,
2013-03-05 23:30:00,73.6,63.6,29.98,NE,52,0.0,4.0,71,0.00,CLR,,0.00,WeatherDisplay:10.37,2013-03-05 12:30:00,
2013-03-05 23:35:00,73.6,63.6,29.98,NNE,31,0.0,4.0,71,0.00,CLR,,0.00,WeatherDisplay:10.37,2013-03-05 12:35:00,
2013-03-05 23:40:00,73.4,63.4,29.98,NNE,33,0.0,2.0,71,0.00,CLR,,0.00,WeatherDisplay:10.37,2013-03-05 12:40:00,
2013-03-05 23:45:00,73.3,63.3,29.99,NE,39,1.0,2.0,71,0.00,CLR,,0.00,WeatherDisplay:10.37,2013-03-05 12:45:00,
2013-03-05 23:50:00,73.2,63.2,29.99,ENE,61,1.0,4.0,71,0.00,CLR,,0.00,WeatherDisplay:10.37,2013-03-05 12:50:00,
2013-03-05 23:55:00,73.2,63.2,29.99,NE,45,0.0,0.0,71,0.00,CLR,,0.00,WeatherDisplay:10.37,2013-03-05 12:55:00,